Terminal Aerodrome Forecast
Issued by NWS Upton, NY

Current Version | Previous Version | Text Only | Print | Product List | Glossary On
Versions: 1 2 3 4 5 6 7 8 9 10 11 12 13 14 15 16 17 18 19 20 21 22 23 24 25 26 27 28 29 30 31 32 33
000 FTUS41 KOKX 250524 TAFBDR TAF KBDR 250524Z 2506/2606 VRB03KT 1/2SM FG VV002 FM251600 14010KT 4SM BR OVC007 FM260000 17009KT 6SM -SHRA BR BKN007 FM260200 30015G23KT P6SM SCT025 SCT040 SCT070=

USA.gov is the U.S. government's official web portal to all federal, state and local government web resources and services.